Time;durP1;ratioP1;P1;durP2;ratioP2;P2;SDS_P1;SDS_P2;PMS_P1;PMS_P2;Temp;Humidity;BMP_temperature;BMP_pressure;BME280_temperature;BME280_humidity;BME280_pressure;Samples;Min_cycle;Max_cycle;Signal;HPM_P1;HPM_P2
2023/05/16 00:02:10;;;;;;;8.20;7.40;;;;;;;;;;5073431;28;20962;-58
2023/05/16 00:04:37;;;;;;;8.10;7.43;;;;;;;;;;5073394;28;20532;-56
2023/05/16 00:07:04;;;;;;;8.07;7.27;;;;;;;;;;5073402;28;20444;-57
2023/05/16 00:09:31;;;;;;;7.07;6.57;;;;;;;;;;5073525;28;20453;-58
2023/05/16 00:12:00;;;;;;;7.63;6.90;;;;;;;;;;5073509;28;20546;-57
2023/05/16 00:14:27;;;;;;;7.83;7.23;;;;;;;;;;5073367;28;20452;-57
2023/05/16 00:16:56;;;;;;;7.90;7.20;;;;;;;;;;5073285;28;20445;-57
2023/05/16 00:19:23;;;;;;;7.73;7.03;;;;;;;;;;5073071;28;20475;-56
2023/05/16 00:21:50;;;;;;;8.13;7.43;;;;;;;;;;5073042;28;20453;-58
2023/05/16 00:24:17;;;;;;;8.87;7.20;;;;;;;;;;5072937;28;20447;-57
2023/05/16 00:26:44;;;;;;;7.40;6.80;;;;;;;;;;5073128;28;20538;-57
2023/05/16 00:29:12;;;;;;;7.90;7.10;;;;;;;;;;5073044;28;20452;-57
2023/05/16 00:31:39;;;;;;;8.87;8.07;;;;;;;;;;5073013;28;20812;-57
2023/05/16 00:34:06;;;;;;;8.67;7.87;;;;;;;;;;5072968;28;20497;-57
2023/05/16 00:36:34;;;;;;;8.30;7.60;;;;;;;;;;5072834;28;20444;-57
2023/05/16 00:39:01;;;;;;;7.60;7.10;;;;;;;;;;5072908;28;20828;-56
2023/05/16 00:41:28;;;;;;;8.10;7.50;;;;;;;;;;5072896;28;20454;-56
2023/05/16 00:43:55;;;;;;;7.63;7.03;;;;;;;;;;5072971;28;20457;-56
2023/05/16 00:46:23;;;;;;;7.40;6.70;;;;;;;;;;5072758;28;20968;-57
2023/05/16 00:48:50;;;;;;;7.83;7.23;;;;;;;;;;5072681;28;20820;-57
2023/05/16 00:51:18;;;;;;;9.17;7.83;;;;;;;;;;5072979;28;20558;-57
2023/05/16 00:53:45;;;;;;;8.37;7.70;;;;;;;;;;5072750;28;20522;-57
2023/05/16 00:56:12;;;;;;;8.23;7.30;;;;;;;;;;5072817;28;20536;-58
2023/05/16 00:58:39;;;;;;;8.60;7.90;;;;;;;;;;5072763;28;20453;-58
2023/05/16 01:01:06;;;;;;;11.53;7.67;;;;;;;;;;5072685;28;20501;-58
2023/05/16 01:03:35;;;;;;;9.47;8.70;;;;;;;;;;5072561;28;20857;-58
2023/05/16 01:06:01;;;;;;;10.30;7.90;;;;;;;;;;5072794;28;20471;-57
2023/05/16 01:08:28;;;;;;;9.87;8.70;;;;;;;;;;5072704;28;20448;-58
2023/05/16 01:11:01;;;;;;;8.90;8.20;;;;;;;;;;5072721;28;20962;-58
2023/05/16 01:13:31;;;;;;;10.17;8.90;;;;;;;;;;5072665;28;20448;-58
2023/05/16 01:16:02;;;;;;;9.33;8.60;;;;;;;;;;5072513;28;20839;-58
2023/05/16 01:18:31;;;;;;;9.57;8.77;;;;;;;;;;5072682;28;20542;-58
2023/05/16 01:21:02;;;;;;;8.57;7.90;;;;;;;;;;5072514;28;20490;-58
2023/05/16 01:23:40;;;;;;;13.47;8.70;;;;;;;;;;5072643;28;20463;-57
2023/05/16 01:26:13;;;;;;;9.20;8.50;;;;;;;;;;5072473;28;20995;-58
2023/05/16 01:28:41;;;;;;;9.43;8.53;;;;;;;;;;5072576;28;20455;-58
2023/05/16 01:31:08;;;;;;;9.40;8.70;;;;;;;;;;5072582;28;20520;-56
2023/05/16 01:33:35;;;;;;;9.40;8.60;;;;;;;;;;5072534;28;20536;-57
2023/05/16 01:36:06;;;;;;;9.00;8.27;;;;;;;;;;5072264;28;20534;-57
2023/05/16 01:38:37;;;;;;;9.60;8.90;;;;;;;;;;5075862;28;20447;-57
2023/05/16 01:41:06;;;;;;;9.57;8.77;;;;;;;;;;5076084;28;20571;-57
2023/05/16 01:43:36;;;;;;;10.87;10.07;;;;;;;;;;5076268;28;20454;-57
2023/05/16 01:46:05;;;;;;;12.20;11.00;;;;;;;;;;5076169;28;20448;-57
2023/05/16 01:48:36;;;;;;;11.57;10.17;;;;;;;;;;5076005;28;20451;-57
2023/05/16 01:51:04;;;;;;;11.30;10.30;;;;;;;;;;5076058;28;20890;-57
2023/05/16 01:53:35;;;;;;;11.37;10.47;;;;;;;;;;5075699;28;20806;-58
2023/05/16 01:56:02;;;;;;;12.20;11.10;;;;;;;;;;5076035;28;20448;-57
2023/05/16 01:58:32;;;;;;;13.00;11.90;;;;;;;;;;5075900;28;20450;-57
2023/05/16 02:01:02;;;;;;;13.77;12.10;;;;;;;;;;5075865;28;20483;-56
2023/05/16 02:03:29;;;;;;;16.20;11.90;;;;;;;;;;5075812;28;20448;-57
2023/05/16 02:05:56;;;;;;;15.13;13.67;;;;;;;;;;5075654;28;20459;-58
2023/05/16 02:08:23;;;;;;;14.23;12.93;;;;;;;;;;5075782;28;20539;-57
2023/05/16 02:10:50;;;;;;;17.37;15.10;;;;;;;;;;5075594;28;20931;-57
2023/05/16 02:13:17;;;;;;;17.30;15.60;;;;;;;;;;5075695;28;20448;-58
2023/05/16 02:15:44;;;;;;;18.53;15.63;;;;;;;;;;5075536;28;20535;-58
2023/05/16 02:18:12;;;;;;;16.97;15.43;;;;;;;;;;5075470;28;20459;-57
2023/05/16 02:20:39;;;;;;;21.70;14.30;;;;;;;;;;5075262;28;20990;-58
2023/05/16 02:23:06;;;;;;;15.67;14.27;;;;;;;;;;5075648;28;20448;-58
2023/05/16 02:25:33;;;;;;;17.20;15.40;;;;;;;;;;5075626;28;20526;-57
2023/05/16 02:28:00;;;;;;;15.33;13.83;;;;;;;;;;5075323;28;20851;-57
2023/05/16 02:30:27;;;;;;;18.33;16.63;;;;;;;;;;5075304;28;20454;-57
2023/05/16 02:32:54;;;;;;;18.00;16.20;;;;;;;;;;5075158;28;20447;-58
2023/05/16 02:35:22;;;;;;;17.20;14.70;;;;;;;;;;5075115;28;20448;-58
2023/05/16 02:37:49;;;;;;;16.37;14.83;;;;;;;;;;5075312;28;20448;-58
2023/05/16 02:40:16;;;;;;;18.63;15.63;;;;;;;;;;5075192;28;20468;-57
2023/05/16 02:42:43;;;;;;;17.00;15.33;;;;;;;;;;5075212;28;20878;-58
2023/05/16 02:45:11;;;;;;;16.53;13.97;;;;;;;;;;5075151;28;20454;-57
2023/05/16 02:47:38;;;;;;;15.77;14.17;;;;;;;;;;5074657;28;20455;-58
2023/05/16 02:50:05;;;;;;;17.13;14.37;;;;;;;;;;5075067;28;20879;-57
2023/05/16 02:52:33;;;;;;;15.73;14.13;;;;;;;;;;5075030;28;20487;-56
2023/05/16 02:55:00;;;;;;;17.80;13.50;;;;;;;;;;5074833;28;20810;-57
2023/05/16 02:57:27;;;;;;;15.93;12.57;;;;;;;;;;5074836;28;20877;-57
2023/05/16 02:59:54;;;;;;;16.57;15.03;;;;;;;;;;5074618;28;20471;-57
2023/05/16 03:02:21;;;;;;;15.97;14.33;;;;;;;;;;5074626;28;20461;-57
2023/05/16 03:04:47;;;;;;;14.87;13.57;;;;;;;;;;5074919;28;20446;-58
2023/05/16 03:07:14;;;;;;;15.73;14.37;;;;;;;;;;5074779;28;20451;-57
2023/05/16 03:09:43;;;;;;;15.33;13.90;;;;;;;;;;5074627;28;20459;-57
2023/05/16 03:12:10;;;;;;;15.57;14.07;;;;;;;;;;5074678;28;20522;-57
2023/05/16 03:14:36;;;;;;;17.50;13.30;;;;;;;;;;5074472;28;20530;-57
2023/05/16 03:17:03;;;;;;;14.90;12.50;;;;;;;;;;5074627;28;20508;-58
2023/05/16 03:19:30;;;;;;;13.57;12.10;;;;;;;;;;5074223;28;21038;-57
2023/05/16 03:21:57;;;;;;;14.23;12.83;;;;;;;;;;5074426;28;20458;-57
2023/05/16 03:24:24;;;;;;;15.43;13.97;;;;;;;;;;5074372;28;20482;-57
2023/05/16 03:26:53;;;;;;;13.67;12.37;;;;;;;;;;5074232;28;20486;-57
2023/05/16 03:29:20;;;;;;;16.77;13.60;;;;;;;;;;5074041;28;20846;-58
2023/05/16 03:31:47;;;;;;;14.77;12.70;;;;;;;;;;5074336;28;20452;-58
2023/05/16 03:34:13;;;;;;;15.47;13.87;;;;;;;;;;5074170;28;20892;-57
2023/05/16 03:36:43;;;;;;;15.63;14.07;;;;;;;;;;5074126;28;20448;-57
2023/05/16 03:39:10;;;;;;;14.50;13.00;;;;;;;;;;5073962;28;20454;-57
2023/05/16 03:41:37;;;;;;;14.40;12.97;;;;;;;;;;5073792;28;20490;-57
2023/05/16 03:44:05;;;;;;;15.13;13.50;;;;;;;;;;5073741;28;20517;-57
2023/05/16 03:46:32;;;;;;;13.90;12.27;;;;;;;;;;5073999;28;20536;-57
2023/05/16 03:48:59;;;;;;;14.33;12.90;;;;;;;;;;5073847;28;20462;-57
2023/05/16 03:51:26;;;;;;;15.10;13.70;;;;;;;;;;5073847;28;20547;-57
2023/05/16 03:53:53;;;;;;;15.83;14.13;;;;;;;;;;5073610;28;20468;-55
2023/05/16 03:56:21;;;;;;;15.23;13.83;;;;;;;;;;5073761;28;20950;-57
2023/05/16 03:58:48;;;;;;;17.23;14.50;;;;;;;;;;5073614;28;20795;-58
2023/05/16 04:01:16;;;;;;;15.17;13.53;;;;;;;;;;5073124;28;20483;-57
2023/05/16 04:03:43;;;;;;;15.47;13.83;;;;;;;;;;5073680;28;20543;-57
2023/05/16 04:06:10;;;;;;;15.47;13.73;;;;;;;;;;5073601;28;20798;-57
2023/05/16 04:08:38;;;;;;;15.90;12.63;;;;;;;;;;5073405;28;20452;-57
2023/05/16 04:11:05;;;;;;;14.93;13.40;;;;;;;;;;5073325;28;20454;-57
2023/05/16 04:13:32;;;;;;;16.87;13.27;;;;;;;;;;5073161;28;20969;-57
2023/05/16 04:15:59;;;;;;;15.00;13.57;;;;;;;;;;5073752;28;20538;-57
2023/05/16 04:18:27;;;;;;;15.70;14.20;;;;;;;;;;5073507;28;20455;-57
2023/05/16 04:20:54;;;;;;;15.30;12.83;;;;;;;;;;5073173;28;20467;-57
2023/05/16 04:23:21;;;;;;;15.57;14.07;;;;;;;;;;5073195;28;20482;-57
2023/05/16 04:25:49;;;;;;;16.63;14.50;;;;;;;;;;5073102;28;20483;-56
2023/05/16 04:28:16;;;;;;;20.03;14.07;;;;;;;;;;5073223;28;20563;-57
2023/05/16 04:30:43;;;;;;;16.90;15.13;;;;;;;;;;5073100;28;20462;-57
2023/05/16 04:33:10;;;;;;;17.07;15.43;;;;;;;;;;5073191;28;20927;-57
2023/05/16 04:35:38;;;;;;;15.80;14.17;;;;;;;;;;5073084;28;20530;-55
2023/05/16 04:38:05;;;;;;;15.87;14.13;;;;;;;;;;5072929;28;20448;-57
2023/05/16 04:40:32;;;;;;;15.60;13.97;;;;;;;;;;5073003;28;20476;-56
2023/05/16 04:42:59;;;;;;;16.00;14.40;;;;;;;;;;5073173;28;20443;-55
2023/05/16 04:45:26;;;;;;;16.20;13.53;;;;;;;;;;5073019;28;20546;-56
2023/05/16 04:47:53;;;;;;;15.87;14.30;;;;;;;;;;5072900;28;20480;-55
2023/05/16 04:50:20;;;;;;;18.47;15.27;;;;;;;;;;5072765;28;20457;-56
2023/05/16 04:52:48;;;;;;;16.87;15.27;;;;;;;;;;5072961;28;20455;-56
2023/05/16 04:55:15;;;;;;;15.63;14.20;;;;;;;;;;5072701;28;20475;-57
2023/05/16 04:57:42;;;;;;;15.90;14.20;;;;;;;;;;5072935;28;20434;-57
2023/05/16 05:00:10;;;;;;;16.67;14.90;;;;;;;;;;5072816;28;20815;-56
2023/05/16 05:02:38;;;;;;;17.70;15.67;;;;;;;;;;5072803;28;20448;-57
2023/05/16 05:05:05;;;;;;;17.93;16.13;;;;;;;;;;5072748;28;20586;-57
2023/05/16 05:07:32;;;;;;;17.47;15.37;;;;;;;;;;5072710;28;20928;-57
2023/05/16 05:10:01;;;;;;;15.90;14.30;;;;;;;;;;5072758;28;20486;-55
2023/05/16 05:12:28;;;;;;;17.00;14.80;;;;;;;;;;5076441;28;20548;-56
2023/05/16 05:14:55;;;;;;;16.27;14.67;;;;;;;;;;5076843;28;20542;-56
2023/05/16 05:17:23;;;;;;;16.40;14.17;;;;;;;;;;5076704;28;20727;-56
2023/05/16 05:19:50;;;;;;;23.30;14.80;;;;;;;;;;5076468;28;20534;-57
2023/05/16 05:22:17;;;;;;;16.90;14.60;;;;;;;;;;5076518;28;21010;-55
2023/05/16 05:24:44;;;;;;;16.77;15.03;;;;;;;;;;5076645;28;20531;-55
2023/05/16 05:27:12;;;;;;;15.13;13.60;;;;;;;;;;5076445;28;20454;-56
2023/05/16 05:29:39;;;;;;;15.03;13.17;;;;;;;;;;5076285;28;20963;-57
2023/05/16 05:32:07;;;;;;;15.57;14.00;;;;;;;;;;5076784;28;20447;-56
2023/05/16 05:34:34;;;;;;;15.53;14.03;;;;;;;;;;5076608;28;20531;-59
2023/05/16 05:37:01;;;;;;;15.63;13.80;;;;;;;;;;5076123;28;20487;-56
2023/05/16 05:39:28;;;;;;;15.53;13.30;;;;;;;;;;5076207;28;20509;-56
2023/05/16 05:41:54;;;;;;;16.67;15.07;;;;;;;;;;5076002;28;20490;-56
2023/05/16 05:44:23;;;;;;;16.50;14.80;;;;;;;;;;5076097;28;20485;-57
2023/05/16 05:46:50;;;;;;;18.10;15.80;;;;;;;;;;5075954;28;20819;-54
2023/05/16 05:49:17;;;;;;;18.30;15.00;;;;;;;;;;5076010;28;20448;-57
2023/05/16 05:51:44;;;;;;;17.10;15.30;;;;;;;;;;5075984;28;21006;-58
2023/05/16 05:54:10;;;;;;;17.03;15.27;;;;;;;;;;5075749;28;20910;-57
2023/05/16 05:56:37;;;;;;;15.50;13.97;;;;;;;;;;5075815;28;20448;-58
2023/05/16 05:59:04;;;;;;;14.97;13.40;;;;;;;;;;5075615;28;20957;-58
2023/05/16 06:01:32;;;;;;;16.70;13.67;;;;;;;;;;5075534;28;20467;-57
2023/05/16 06:03:59;;;;;;;16.83;15.20;;;;;;;;;;5075823;28;20547;-57
2023/05/16 06:06:26;;;;;;;18.57;15.10;;;;;;;;;;5075657;28;20530;-58
2023/05/16 06:08:53;;;;;;;17.80;16.10;;;;;;;;;;5075568;28;20448;-57
2023/05/16 06:11:20;;;;;;;20.33;15.77;;;;;;;;;;5075560;28;20448;-57
2023/05/16 06:13:47;;;;;;;16.70;15.10;;;;;;;;;;5075486;28;20871;-56
2023/05/16 06:16:16;;;;;;;20.77;16.03;;;;;;;;;;5075578;28;20450;-57
2023/05/16 06:18:44;;;;;;;18.50;16.50;;;;;;;;;;5075216;28;20459;-54
2023/05/16 06:21:11;;;;;;;19.33;16.50;;;;;;;;;;5075297;28;20513;-58
2023/05/16 06:23:38;;;;;;;18.97;16.07;;;;;;;;;;5074587;28;20538;-57
2023/05/16 06:26:05;;;;;;;18.00;15.10;;;;;;;;;;5075437;28;20452;-57
2023/05/16 06:28:32;;;;;;;15.57;13.97;;;;;;;;;;5075062;28;20483;-58
2023/05/16 06:30:59;;;;;;;15.33;13.93;;;;;;;;;;5074957;28;20455;-55
2023/05/16 06:33:28;;;;;;;16.90;13.83;;;;;;;;;;5075206;28;20482;-56
2023/05/16 06:35:56;;;;;;;15.93;14.33;;;;;;;;;;5075123;28;20536;-54
2023/05/16 06:38:23;;;;;;;15.10;13.67;;;;;;;;;;5074969;28;20535;-58
2023/05/16 06:40:50;;;;;;;15.13;13.70;;;;;;;;;;5074814;28;21017;-57
2023/05/16 06:43:17;;;;;;;13.77;12.27;;;;;;;;;;5075063;28;20534;-57
2023/05/16 06:45:45;;;;;;;15.70;14.00;;;;;;;;;;5074779;28;20535;-57
2023/05/16 06:48:14;;;;;;;14.33;12.93;;;;;;;;;;5074716;28;20989;-57
2023/05/16 06:50:41;;;;;;;15.20;13.67;;;;;;;;;;5074939;28;20452;-57
2023/05/16 06:53:19;;;;;;;13.20;11.80;;;;;;;;;;5074729;28;20462;-60
2023/05/16 06:55:48;;;;;;;13.80;12.37;;;;;;;;;;5074396;28;20558;-57
2023/05/16 06:58:15;;;;;;;13.87;12.47;;;;;;;;;;5074510;28;20543;-57
2023/05/16 07:00:42;;;;;;;13.20;11.87;;;;;;;;;;5074734;28;20542;-56
2023/05/16 07:03:09;;;;;;;12.83;11.50;;;;;;;;;;5074598;28;20887;-56
2023/05/16 07:05:36;;;;;;;11.97;10.93;;;;;;;;;;5074174;28;20448;-57
2023/05/16 07:08:03;;;;;;;12.57;11.37;;;;;;;;;;5074260;28;20548;-57
2023/05/16 07:10:31;;;;;;;11.17;10.17;;;;;;;;;;5074513;28;20878;-57
2023/05/16 07:13:00;;;;;;;13.70;10.70;;;;;;;;;;5074483;28;20452;-58
2023/05/16 07:15:28;;;;;;;13.00;10.07;;;;;;;;;;5074378;28;20474;-57
2023/05/16 07:17:56;;;;;;;13.00;10.90;;;;;;;;;;5074292;28;20479;-58
2023/05/16 07:20:22;;;;;;;10.40;9.40;;;;;;;;;;5074235;28;20495;-57
2023/05/16 07:22:49;;;;;;;10.30;9.30;;;;;;;;;;5074533;28;20578;-56
2023/05/16 07:25:17;;;;;;;10.90;9.80;;;;;;;;;;5074318;28;20543;-57
2023/05/16 07:27:45;;;;;;;10.90;9.80;;;;;;;;;;5073957;28;20531;-56
2023/05/16 07:30:13;;;;;;;9.90;9.10;;;;;;;;;;5073929;28;20552;-56
2023/05/16 07:32:40;;;;;;;10.47;9.10;;;;;;;;;;5073967;28;20535;-58
2023/05/16 07:35:08;;;;;;;8.73;8.03;;;;;;;;;;5072769;28;21004;-57
2023/05/16 07:37:35;;;;;;;11.97;8.97;;;;;;;;;;5073655;28;20493;-57
2023/05/16 07:40:02;;;;;;;9.73;8.00;;;;;;;;;;5073831;28;20538;-57
2023/05/16 07:42:29;;;;;;;9.77;8.80;;;;;;;;;;5073836;28;20591;-55
2023/05/16 07:44:57;;;;;;;9.73;8.30;;;;;;;;;;5073831;28;20452;-56
2023/05/16 07:47:24;;;;;;;10.90;8.63;;;;;;;;;;5073696;28;20444;-57
2023/05/16 07:49:51;;;;;;;7.87;6.90;;;;;;;;;;5073895;28;20440;-57
2023/05/16 07:52:18;;;;;;;8.33;7.53;;;;;;;;;;5073813;28;20440;-56
2023/05/16 07:54:45;;;;;;;8.83;6.80;;;;;;;;;;5073514;28;20477;-57
2023/05/16 07:57:12;;;;;;;8.97;6.73;;;;;;;;;;5073468;28;20491;-57
2023/05/16 07:59:39;;;;;;;10.13;7.20;;;;;;;;;;5073439;28;20555;-56
2023/05/16 08:02:07;;;;;;;8.20;6.70;;;;;;;;;;5073192;28;20489;-57
2023/05/16 08:04:34;;;;;;;6.70;6.10;;;;;;;;;;5073513;28;20473;-56
2023/05/16 08:07:02;;;;;;;6.40;5.80;;;;;;;;;;5073533;28;20489;-56
2023/05/16 08:09:28;;;;;;;6.27;5.70;;;;;;;;;;5073164;28;20484;-57
2023/05/16 08:11:55;;;;;;;6.40;5.90;;;;;;;;;;5073246;28;20452;-57
2023/05/16 08:14:22;;;;;;;5.87;5.47;;;;;;;;;;5073267;28;20454;-57
2023/05/16 08:16:49;;;;;;;9.27;7.10;;;;;;;;;;5073152;28;20454;-58
2023/05/16 08:19:17;;;;;;;6.00;5.50;;;;;;;;;;5073388;28;21026;-57
2023/05/16 08:21:44;;;;;;;7.17;6.00;;;;;;;;;;5073175;28;20838;-57
2023/05/16 08:24:13;;;;;;;9.43;6.70;;;;;;;;;;5073202;28;20466;-57
2023/05/16 08:26:40;;;;;;;7.30;6.80;;;;;;;;;;5073011;28;20452;-57
2023/05/16 08:29:10;;;;;;;7.30;6.70;;;;;;;;;;5072757;28;20451;-58
2023/05/16 08:31:36;;;;;;;7.73;6.93;;;;;;;;;;5073138;28;20527;-59
2023/05/16 08:34:05;;;;;;;7.40;6.70;;;;;;;;;;5073168;28;20534;-57
2023/05/16 08:36:34;;;;;;;6.90;6.30;;;;;;;;;;5072959;28;20535;-56
2023/05/16 08:39:02;;;;;;;6.97;6.30;;;;;;;;;;5072916;28;20497;-58
2023/05/16 08:41:28;;;;;;;6.97;5.93;;;;;;;;;;5072566;28;20452;-58
2023/05/16 08:43:57;;;;;;;7.23;5.77;;;;;;;;;;5072806;28;20536;-57
2023/05/16 08:46:24;;;;;;;6.23;4.77;;;;;;;;;;5072586;28;20455;-55
2023/05/16 08:48:53;;;;;;;6.50;5.17;;;;;;;;;;5072991;28;20444;-56
2023/05/16 08:51:20;;;;;;;6.80;5.57;;;;;;;;;;5072827;28;20452;-58
2023/05/16 08:53:51;;;;;;;4.80;4.40;;;;;;;;;;5072573;28;20449;-58
2023/05/16 08:56:21;;;;;;;7.60;4.93;;;;;;;;;;5072615;28;20463;-58
2023/05/16 08:58:47;;;;;;;5.80;5.30;;;;;;;;;;5072855;28;20450;-57
2023/05/16 09:01:15;;;;;;;4.13;3.80;;;;;;;;;;5072737;28;20444;-58
2023/05/16 09:03:42;;;;;;;3.43;3.20;;;;;;;;;;5072653;28;20483;-57
2023/05/16 09:06:09;;;;;;;5.10;3.53;;;;;;;;;;5072797;28;20506;-58
2023/05/16 09:08:36;;;;;;;5.03;4.40;;;;;;;;;;5072566;28;20488;-58
2023/05/16 09:11:05;;;;;;;4.07;3.77;;;;;;;;;;5072700;28;20959;-58
2023/05/16 09:13:32;;;;;;;4.80;4.40;;;;;;;;;;5072692;28;20861;-58
2023/05/16 09:16:08;;;;;;;5.40;4.40;;;;;;;;;;5072540;28;20941;-57
2023/05/16 09:18:36;;;;;;;7.13;5.20;;;;;;;;;;5072525;28;20451;-57
2023/05/16 09:21:03;;;;;;;3.80;3.50;;;;;;;;;;5072589;28;20456;-59
2023/05/16 09:23:30;;;;;;;4.50;4.20;;;;;;;;;;5072330;28;20457;-61
2023/05/16 09:25:58;;;;;;;5.40;4.57;;;;;;;;;;5072797;28;20480;-60
2023/05/16 09:28:27;;;;;;;4.20;3.90;;;;;;;;;;5072527;28;20543;-61
2023/05/16 09:30:54;;;;;;;5.90;3.77;;;;;;;;;;5072420;28;20451;-59
2023/05/16 09:33:23;;;;;;;5.43;3.43;;;;;;;;;;5072424;28;20467;-59
2023/05/16 09:35:55;;;;;;;3.70;3.43;;;;;;;;;;5072391;28;20822;-59
2023/05/16 09:38:22;;;;;;;3.93;3.63;;;;;;;;;;5072532;28;20459;-59
2023/05/16 09:40:50;;;;;;;3.20;2.90;;;;;;;;;;5072484;28;20447;-58
2023/05/16 09:43:18;;;;;;;6.80;2.87;;;;;;;;;;5072404;28;20496;-58
2023/05/16 09:45:47;;;;;;;3.57;2.57;;;;;;;;;;5072371;28;20487;-59
2023/05/16 09:48:15;;;;;;;2.67;2.50;;;;;;;;;;5072154;28;20524;-59
2023/05/16 09:50:48;;;;;;;3.30;2.70;;;;;;;;;;5072187;28;20450;-59
2023/05/16 09:53:15;;;;;;;2.70;2.30;;;;;;;;;;5072553;28;20455;-59
2023/05/16 09:55:42;;;;;;;3.20;2.17;;;;;;;;;;5069759;28;20487;-58
2023/05/16 09:58:09;;;;;;;3.00;2.80;;;;;;;;;;5073101;28;20497;-59
2023/05/16 10:00:35;;;;;;;2.90;1.83;;;;;;;;;;5074177;28;20538;-59
2023/05/16 10:03:04;;;;;;;3.63;2.40;;;;;;;;;;5072840;28;20480;-59
2023/05/16 10:05:33;;;;;;;2.97;2.10;;;;;;;;;;5075017;28;20444;-59
2023/05/16 10:08:05;;;;;;;6.03;2.70;;;;;;;;;;5074868;28;20762;-59
2023/05/16 10:10:32;;;;;;;2.50;2.30;;;;;;;;;;5075178;28;20456;-59
2023/05/16 10:13:00;;;;;;;4.27;2.97;;;;;;;;;;5075275;28;20451;-59
2023/05/16 10:15:27;;;;;;;2.47;2.27;;;;;;;;;;5075059;28;20447;-59
2023/05/16 10:17:57;;;;;;;4.10;2.80;;;;;;;;;;5075348;28;20501;-60
2023/05/16 10:20:26;;;;;;;2.63;2.10;;;;;;;;;;5075145;28;20449;-59
2023/05/16 10:22:55;;;;;;;7.93;2.40;;;;;;;;;;5074927;28;20624;-59
2023/05/16 10:25:26;;;;;;;4.30;2.90;;;;;;;;;;5074908;28;20514;-59
2023/05/16 10:27:53;;;;;;;3.00;1.93;;;;;;;;;;5075045;28;20531;-59
2023/05/16 10:30:20;;;;;;;9.77;2.60;;;;;;;;;;5075487;28;20820;-59
2023/05/16 10:32:48;;;;;;;2.60;1.63;;;;;;;;;;5075446;28;20452;-60
2023/05/16 10:35:15;;;;;;;7.13;2.87;;;;;;;;;;5075196;28;20443;-59
2023/05/16 10:37:44;;;;;;;4.30;2.10;;;;;;;;;;5075254;28;20541;-59
2023/05/16 10:40:11;;;;;;;3.10;1.83;;;;;;;;;;5075034;28;20453;-59
2023/05/16 10:42:38;;;;;;;9.53;2.30;;;;;;;;;;5074771;28;20486;-60
2023/05/16 10:45:17;;;;;;;3.43;2.00;;;;;;;;;;5075221;28;20452;-60
2023/05/16 10:47:51;;;;;;;2.10;2.00;;;;;;;;;;5075172;28;20480;-60
2023/05/16 10:50:32;;;;;;;8.30;2.20;;;;;;;;;;5074947;28;20462;-60
2023/05/16 10:53:11;;;;;;;4.97;2.00;;;;;;;;;;5074836;28;20514;-60
2023/05/16 10:55:39;;;;;;;5.13;2.10;;;;;;;;;;5074568;28;20487;-60
2023/05/16 10:58:06;;;;;;;3.77;2.10;;;;;;;;;;5074903;28;20537;-60
2023/05/16 11:00:33;;;;;;;3.97;2.10;;;;;;;;;;5074798;28;20543;-62
2023/05/16 11:03:05;;;;;;;7.23;2.40;;;;;;;;;;5074653;28;20809;-61
2023/05/16 11:05:32;;;;;;;6.13;2.93;;;;;;;;;;5074607;28;20509;-62
2023/05/16 11:08:04;;;;;;;4.60;2.90;;;;;;;;;;5074801;28;20452;-62
2023/05/16 11:10:32;;;;;;;3.97;2.47;;;;;;;;;;5074423;28;20445;-62
2023/05/16 11:13:03;;;;;;;5.20;2.93;;;;;;;;;;5074312;28;21011;-62
2023/05/16 11:15:33;;;;;;;4.30;2.40;;;;;;;;;;5074561;28;20453;-62
2023/05/16 11:18:07;;;;;;;4.33;2.27;;;;;;;;;;5074331;28;20866;-62
2023/05/16 11:20:34;;;;;;;4.80;2.30;;;;;;;;;;5074512;28;20472;-62
2023/05/16 11:23:20;;;;;;;3.87;2.40;;;;;;;;;;5074474;28;20476;-62
2023/05/16 11:25:50;;;;;;;3.50;3.20;;;;;;;;;;5074139;28;20529;-62
2023/05/16 11:28:18;;;;;;;3.70;2.43;;;;;;;;;;5074024;28;20458;-63
2023/05/16 11:30:47;;;;;;;4.87;3.10;;;;;;;;;;5074082;28;20479;-62
2023/05/16 11:33:14;;;;;;;5.77;2.57;;;;;;;;;;5074136;28;20974;-62
2023/05/16 11:35:42;;;;;;;2.97;2.77;;;;;;;;;;5074039;28;20455;-62
2023/05/16 11:38:14;;;;;;;3.03;2.50;;;;;;;;;;5073742;28;20456;-61
2023/05/16 11:40:43;;;;;;;5.10;2.70;;;;;;;;;;5073966;28;20460;-61
2023/05/16 11:43:11;;;;;;;4.80;3.03;;;;;;;;;;5073607;28;20476;-61
2023/05/16 11:45:38;;;;;;;7.00;3.27;;;;;;;;;;5073778;28;20451;-62
2023/05/16 11:48:07;;;;;;;3.17;2.80;;;;;;;;;;5073733;28;20868;-62
2023/05/16 11:50:35;;;;;;;6.33;2.40;;;;;;;;;;5073310;28;20944;-62
2023/05/16 11:53:01;;;;;;;5.80;2.30;;;;;;;;;;5073567;28;20453;-61
2023/05/16 11:55:29;;;;;;;3.00;2.10;;;;;;;;;;5073333;28;21076;-62
2023/05/16 11:57:57;;;;;;;7.53;2.53;;;;;;;;;;5073630;28;20440;-63
2023/05/16 12:00:26;;;;;;;3.33;2.20;;;;;;;;;;5073573;28;20453;-62
2023/05/16 12:02:54;;;;;;;9.60;2.80;;;;;;;;;;5073050;28;20892;-62
2023/05/16 12:05:26;;;;;;;9.50;2.63;;;;;;;;;;5072979;28;20452;-61
2023/05/16 12:07:54;;;;;;;5.80;2.10;;;;;;;;;;5072920;28;20472;-62
2023/05/16 12:10:23;;;;;;;2.73;2.20;;;;;;;;;;5072767;28;20447;-62
2023/05/16 12:12:51;;;;;;;8.27;2.60;;;;;;;;;;5070507;28;20536;-63
2023/05/16 12:15:18;;;;;;;9.17;2.80;;;;;;;;;;5073421;28;20451;-63
2023/05/16 12:17:47;;;;;;;3.50;2.13;;;;;;;;;;5073192;28;20998;-63
2023/05/16 12:20:15;;;;;;;2.83;1.70;;;;;;;;;;5072510;28;20486;-63
2023/05/16 12:22:42;;;;;;;9.13;2.80;;;;;;;;;;5072896;28;20460;-63
2023/05/16 12:25:22;;;;;;;2.90;1.80;;;;;;;;;;5073070;28;20484;-63
2023/05/16 12:27:49;;;;;;;5.33;3.07;;;;;;;;;;5073040;28;20458;-63
2023/05/16 12:30:17;;;;;;;6.13;3.50;;;;;;;;;;5072710;28;20542;-63
2023/05/16 12:32:44;;;;;;;9.33;4.30;;;;;;;;;;5072846;28;20509;-63
2023/05/16 12:35:12;;;;;;;6.03;2.10;;;;;;;;;;5072855;28;20478;-63
2023/05/16 12:37:39;;;;;;;5.47;2.13;;;;;;;;;;5073040;28;20452;-63
2023/05/16 12:40:07;;;;;;;3.33;1.80;;;;;;;;;;5072918;28;20535;-63
2023/05/16 12:42:35;;;;;;;3.33;1.93;;;;;;;;;;5072953;28;20492;-63
2023/05/16 12:45:01;;;;;;;4.87;2.47;;;;;;;;;;5072750;28;20488;-63
2023/05/16 12:47:37;;;;;;;9.20;1.80;;;;;;;;;;5072660;28;20532;-63
2023/05/16 12:50:13;;;;;;;3.27;1.90;;;;;;;;;;5072867;28;20879;-63
2023/05/16 12:52:49;;;;;;;2.87;1.80;;;;;;;;;;5072883;28;20445;-62
2023/05/16 12:55:16;;;;;;;9.40;2.10;;;;;;;;;;5072529;28;20488;-62
2023/05/16 12:57:44;;;;;;;5.43;1.97;;;;;;;;;;5072697;28;20540;-60
2023/05/16 13:00:11;;;;;;;7.90;2.67;;;;;;;;;;5072422;28;20535;-63
2023/05/16 13:02:38;;;;;;;4.70;2.17;;;;;;;;;;5072717;28;20459;-61
2023/05/16 13:05:07;;;;;;;4.03;2.13;;;;;;;;;;5072845;28;20549;-62
2023/05/16 13:07:34;;;;;;;5.20;2.37;;;;;;;;;;5072618;28;20460;-62
2023/05/16 13:10:03;;;;;;;3.10;1.60;;;;;;;;;;5072754;28;20811;-62
2023/05/16 13:12:29;;;;;;;4.47;2.27;;;;;;;;;;5072291;28;20526;-62
2023/05/16 13:14:56;;;;;;;7.83;2.03;;;;;;;;;;5072710;28;20936;-61
2023/05/16 13:17:23;;;;;;;6.10;1.80;;;;;;;;;;5072510;28;20450;-62
2023/05/16 13:19:51;;;;;;;7.43;3.07;;;;;;;;;;5072243;28;20940;-62
2023/05/16 13:22:18;;;;;;;8.47;2.00;;;;;;;;;;5072387;28;20869;-62
2023/05/16 13:24:45;;;;;;;3.73;1.83;;;;;;;;;;5072338;28;20839;-62
2023/05/16 13:27:16;;;;;;;6.13;2.30;;;;;;;;;;5071860;28;20540;-62
2023/05/16 13:29:43;;;;;;;5.80;2.30;;;;;;;;;;5072574;28;20464;-63
2023/05/16 13:32:10;;;;;;;9.27;2.87;;;;;;;;;;5073857;28;21009;-62
2023/05/16 13:34:37;;;;;;;8.23;2.20;;;;;;;;;;5076387;28;20536;-62
2023/05/16 13:37:04;;;;;;;5.03;1.80;;;;;;;;;;5076346;28;20501;-63
2023/05/16 13:39:31;;;;;;;5.60;1.90;;;;;;;;;;5075925;28;20530;-63
2023/05/16 13:41:58;;;;;;;12.23;2.40;;;;;;;;;;5076351;28;20446;-62
2023/05/16 13:44:29;;;;;;;5.63;2.03;;;;;;;;;;5076140;28;20492;-63
2023/05/16 13:46:56;;;;;;;4.93;1.70;;;;;;;;;;5076218;28;20457;-63
2023/05/16 13:49:23;;;;;;;4.10;2.23;;;;;;;;;;5075798;28;20485;-62
2023/05/16 13:51:51;;;;;;;2.93;1.60;;;;;;;;;;5075856;28;20811;-63
2023/05/16 13:54:18;;;;;;;7.10;2.13;;;;;;;;;;5075577;28;20489;-62
2023/05/16 13:56:45;;;;;;;7.73;2.00;;;;;;;;;;5076166;28;20541;-63
2023/05/16 13:59:12;;;;;;;6.30;1.60;;;;;;;;;;5076123;28;20449;-62
2023/05/16 14:01:40;;;;;;;7.83;2.20;;;;;;;;;;5076065;28;20450;-62
2023/05/16 14:04:07;;;;;;;4.43;1.60;;;;;;;;;;5075904;28;20565;-62
2023/05/16 14:06:34;;;;;;;8.20;1.87;;;;;;;;;;5075637;28;20449;-62
2023/05/16 14:09:02;;;;;;;6.00;1.67;;;;;;;;;;5075963;28;20887;-62
2023/05/16 14:11:29;;;;;;;4.60;1.73;;;;;;;;;;5075829;28;20900;-62
2023/05/16 14:13:55;;;;;;;5.30;2.40;;;;;;;;;;5075752;28;20453;-62
2023/05/16 14:16:22;;;;;;;5.03;2.10;;;;;;;;;;5075782;28;20454;-62
2023/05/16 14:18:51;;;;;;;6.87;1.67;;;;;;;;;;5075608;28;20535;-62
2023/05/16 14:21:18;;;;;;;4.90;2.03;;;;;;;;;;5075425;28;20655;-62
2023/05/16 14:23:45;;;;;;;5.33;1.90;;;;;;;;;;5075611;28;20472;-62
2023/05/16 14:26:12;;;;;;;2.80;1.30;;;;;;;;;;5075532;28;20455;-62
2023/05/16 14:28:39;;;;;;;2.40;1.30;;;;;;;;;;5075436;28;20492;-62
2023/05/16 14:31:06;;;;;;;6.00;1.30;;;;;;;;;;5075452;28;20915;-62
2023/05/16 14:33:33;;;;;;;5.57;1.63;;;;;;;;;;5075311;28;20449;-62
2023/05/16 14:36:01;;;;;;;7.47;1.70;;;;;;;;;;5075164;28;20817;-62
2023/05/16 14:38:28;;;;;;;9.73;1.73;;;;;;;;;;5075472;28;20537;-63